Butler, Tennessee
Current Conditions -  °F | °C
As of 3:15 PM on Sunday 23 Nov 2014 (Local Time) from K0A9 Reporting Station
Broken Clouds Broken Clouds  
Wind Chill: 54°   Ceiling: 12000
Heat Index: 54°   Visibility: 10mi
Dew Point: 45°   Wind: 12mph
Humidity: 72%   Direction: 70°ENE
Pressure: 29.83"   Gusts: NA
Location:  36.35°N, 82.03°W
Report Text: K0A9 232015Z AUTO 07010KT 10SM FEW033 SCT039 BKN120 12/07 A2983 RMK
Loading
Personal Weather Stations






























Interactive Weather Map New forecast layout! Learn more

10-Day Weather Forecast

Advertisements
Track Severe Weather on mobile